Aeroporto :
LOGIN :

Iscrizione | Disclaimer

   EN    FR    IT 

 










Sommario :    VFR   VFR Marginale   IFR   IFR Intensivo   IFR Molto Intensivo
Visibilità : 
Base nubi : 
>= 8 km
>= 3000ft
5 / 8 km
1000 / 3000 ft
1500m / 5 km
500 / 1000 ft
800 / 1500m
200 / 500 ft
< 800m
< 200 ft
Simboli :   Temporali  Nebbia  Neve Forte  Precipitazioni Forti  Vento > 20 kt
SIGMETs :   Varie  Temporali  Ghiacco  Turbolenza  Onda orograficha  Ceneri Vulcaniche






- Altitudine del aeroporto : 9 ft
- Codice IATA : MIR


DTMB - Habib Bourguliba Int. Monastir

ULTIMO METAR :
  • 242330Z 20004KT CAVOK 12/07 Q1022 NOSIG

METARs OBSOLETI :
  • 242300Z 20002KT CAVOK 13/07 Q1022 NOSIG
  • 242230Z 00000KT CAVOK 12/07 Q1023 NOSIG
  • 242200Z 17004KT CAVOK 13/09 Q1023 NOSIG
  • 242130Z 15005KT 130V190 CAVOK 15/10 Q1023 NOSIG
  • 242030Z 11006KT CAVOK 15/10 Q1023 NOSIG

TAF TAF DTMB
Valido dal 24 a 18 ore il 25 a 18 ore UTC


241700Z 2418/2518 16003KT 8000 NSC
BECMG 2510/2512 09010KT CAVOK



MetMap, La meteo Aeronautica in un colpo d'occhio ! - Copyright ORBIFLY Dicembre 2007 - Disclaimer

ORBIFLY MET'MAP TEAM :

Programmazione e sviluppo : Alexandra Zaïnal
Concezione : Baudouin d'Aumeries
Aiuto per la programmazione : Marc-Olivier Méhu
Supporto tecnico e logistico : Manuel Goepfert
Aiuto per la traduzione : Arnaldo La Scala

Contatto : metmap@orbifly.com




FONTI E CREDITI :

   NOAA